Time;durP1;ratioP1;P1;durP2;ratioP2;P2;SDS_P1;SDS_P2;PMS_P1;PMS_P2;Temp;Humidity;BMP_temperature;BMP_pressure;BME280_temperature;BME280_humidity;BME280_pressure;Samples;Min_cycle;Max_cycle;Signal;HPM_P1;HPM_P2
2021/07/27 00:00:53;;;;;;;6.72;3.88;;;;;;;15.79;49.52;95256.91;5006146;28;20034;-68
2021/07/27 00:03:18;;;;;;;4.72;3.20;;;;;;;15.88;49.23;95252.09;5006938;28;20429;-69
2021/07/27 00:05:43;;;;;;;4.93;3.20;;;;;;;16.05;48.79;95255.00;5007309;28;20071;-68
2021/07/27 00:08:09;;;;;;;5.75;3.40;;;;;;;16.22;48.30;95255.25;5006752;28;20038;-68
2021/07/27 00:10:35;;;;;;;8.52;3.53;;;;;;;16.02;48.49;95251.94;5007307;28;21129;-68
2021/07/27 00:13:02;;;;;;;4.85;3.28;;;;;;;15.92;48.83;95245.25;5007347;28;20077;-68
2021/07/27 00:15:27;;;;;;;3.55;3.15;;;;;;;15.84;49.24;95248.22;5006881;28;20126;-68
2021/07/27 00:17:53;;;;;;;4.00;3.33;;;;;;;15.83;49.17;95246.53;5006876;28;20037;-68
2021/07/27 00:20:19;;;;;;;4.45;3.28;;;;;;;15.97;49.16;95253.44;5007302;28;20034;-70
2021/07/27 00:22:45;;;;;;;4.30;3.40;;;;;;;15.89;49.33;95245.66;5006747;28;20048;-68
2021/07/27 00:25:11;;;;;;;5.20;3.58;;;;;;;15.80;49.62;95241.63;5007002;28;20030;-68
2021/07/27 00:27:36;;;;;;;4.82;3.58;;;;;;;15.99;49.06;95255.91;5006685;28;20057;-68
2021/07/27 00:30:05;;;;;;;5.65;3.50;;;;;;;15.86;49.31;95252.31;5006101;28;20065;-68
2021/07/27 00:32:31;;;;;;;6.20;3.55;;;;;;;16.06;48.71;95253.16;5006650;28;20038;-68
2021/07/27 00:34:56;;;;;;;5.63;3.45;;;;;;;16.02;49.01;95244.72;5006170;28;20037;-68
2021/07/27 00:37:28;;;;;;;4.05;3.20;;;;;;;15.70;49.87;95247.47;5003435;28;20041;-68
2021/07/27 00:39:53;;;;;;;4.18;3.50;;;;;;;15.70;49.90;95256.34;5006502;28;20518;-68
2021/07/27 00:42:19;;;;;;;4.40;3.40;;;;;;;16.13;48.62;95261.97;5006274;28;20077;-68
2021/07/27 00:44:44;;;;;;;6.00;3.78;;;;;;;16.02;49.21;95260.00;5006628;28;20368;-68
2021/07/27 00:47:10;;;;;;;4.78;3.42;;;;;;;15.86;49.73;95259.53;5002851;28;20042;-68
2021/07/27 00:49:35;;;;;;;8.48;3.90;;;;;;;16.11;48.91;95264.88;5005273;28;20028;-68
2021/07/27 00:52:01;;;;;;;6.10;3.75;;;;;;;16.09;49.05;95282.25;5006205;28;20161;-68
2021/07/27 00:54:27;;;;;;;6.32;3.72;;;;;;;15.66;50.19;95276.63;5005957;28;20060;-68
2021/07/27 00:56:52;;;;;;;5.70;3.67;;;;;;;15.90;49.94;95276.03;5004777;28;20032;-68
2021/07/27 00:59:17;;;;;;;7.57;3.58;;;;;;;16.11;49.16;95277.44;5004386;28;20041;-67
2021/07/27 01:01:43;;;;;;;7.80;3.80;;;;;;;15.94;49.77;95275.34;5006536;28;20727;-68
2021/07/27 01:04:08;;;;;;;6.28;3.47;;;;;;;15.84;50.11;95270.47;5006049;28;20110;-68
2021/07/27 01:06:34;;;;;;;7.18;3.97;;;;;;;16.07;49.79;95277.09;5005192;28;20101;-68
2021/07/27 01:09:00;;;;;;;9.50;4.15;;;;;;;15.21;52.03;95286.41;5005887;28;20170;-69
2021/07/27 01:11:26;;;;;;;6.53;3.95;;;;;;;15.42;51.58;95279.03;5004575;28;20468;-68
2021/07/27 01:13:51;;;;;;;5.40;3.60;;;;;;;15.95;50.25;95271.63;5003867;28;20225;-68
2021/07/27 01:16:19;;;;;;;5.03;3.70;;;;;;;16.02;50.05;95271.56;5005223;28;20448;-68
2021/07/27 01:18:57;;;;;;;4.53;3.47;;;;;;;15.89;50.50;95267.16;5005740;28;20136;-68
2021/07/27 01:37:55;;;;;;;6.30;3.95;;;;;;;15.40;52.59;95258.84;5005315;28;20460;-68
2021/07/27 01:40:23;;;;;;;6.05;4.43;;;;;;;15.02;53.42;95264.03;4999689;28;20133;-68
2021/07/27 01:42:49;;;;;;;;;;;;;;;15.35;52.69;95272.91;5005307;28;20098;-68
2021/07/27 01:45:15;;;;;;;5.80;4.27;;;;;;;15.03;53.82;95262.19;5005544;28;19985;-71
2021/07/27 01:47:41;;;;;;;5.88;4.38;;;;;;;14.40;54.98;95273.34;5000515;28;20115;-68
2021/07/27 01:50:07;;;;;;;6.40;4.40;;;;;;;14.50;55.01;95269.38;5005962;28;20141;-68
2021/07/27 01:52:32;;;;;;;6.63;3.70;;;;;;;15.16;53.45;95266.66;5005083;28;20161;-68
2021/07/27 01:54:58;;;;;;;5.80;4.20;;;;;;;15.34;52.92;95265.91;5005207;28;20037;-68
2021/07/27 01:57:26;;;;;;;6.30;4.18;;;;;;;15.43;52.57;95264.59;5005251;28;20029;-68
2021/07/27 01:59:57;;;;;;;6.10;4.20;;;;;;;15.63;51.90;95269.00;5003759;28;20176;-68
2021/07/27 02:02:23;;;;;;;6.18;3.92;;;;;;;15.74;51.41;95268.28;5004647;28;20064;-68
2021/07/27 02:04:48;;;;;;;4.85;3.85;;;;;;;15.99;50.74;95256.72;5005332;28;20340;-68
2021/07/27 02:07:13;;;;;;;5.65;4.20;;;;;;;15.89;50.88;95256.41;5004522;28;20053;-68
2021/07/27 02:09:42;;;;;;;7.38;4.45;;;;;;;15.86;51.18;95255.00;5005001;28;20395;-69
2021/07/27 02:12:16;;;;;;;5.07;4.25;;;;;;;15.46;52.31;95266.84;5003130;28;20041;-68
2021/07/27 02:17:25;;;;;;;8.13;4.53;;;;;;;13.99;56.60;95261.06;4999817;28;20105;-68
2021/07/27 02:19:50;;;;;;;5.13;3.72;;;;;;;15.59;52.11;95257.06;5004417;28;20113;-68
2021/07/27 02:22:17;;;;;;;7.70;4.53;;;;;;;15.77;51.26;95250.13;5004362;28;20132;-68
2021/07/27 02:24:45;;;;;;;6.90;4.18;;;;;;;15.62;52.08;95251.28;5005213;28;20034;-68
2021/07/27 02:27:11;;;;;;;7.68;4.45;;;;;;;15.54;51.90;95249.63;4998190;28;20482;-68
2021/07/27 02:29:36;;;;;;;7.20;4.32;;;;;;;15.17;53.16;95252.19;5001514;28;20113;-68
2021/07/27 02:32:03;;;;;;;7.70;4.43;;;;;;;15.23;53.03;95252.16;5004692;28;20045;-68
2021/07/27 02:34:31;;;;;;;9.98;4.20;;;;;;;15.33;52.78;95253.53;5003000;28;20411;-68
2021/07/27 02:36:57;;;;;;;7.22;4.47;;;;;;;15.04;54.19;95261.13;5004780;28;20237;-68
2021/07/27 02:39:22;;;;;;;8.98;4.88;;;;;;;14.22;55.81;95260.63;5004729;28;20034;-68
2021/07/27 02:41:48;;;;;;;7.43;4.75;;;;;;;13.79;57.58;95259.22;5005118;28;20033;-67
2021/07/27 02:44:13;;;;;;;7.68;4.35;;;;;;;14.84;54.75;95262.91;5004305;28;20173;-68
2021/07/27 02:46:39;;;;;;;6.45;4.20;;;;;;;15.24;53.35;95261.03;5001760;28;20113;-67
2021/07/27 02:49:04;;;;;;;8.05;4.20;;;;;;;15.34;53.05;95257.84;5002896;28;20495;-68
2021/07/27 02:51:29;;;;;;;7.10;4.40;;;;;;;15.27;53.17;95260.59;5004497;28;20057;-68
2021/07/27 02:53:55;;;;;;;5.80;4.35;;;;;;;14.92;54.02;95261.00;5005245;28;20053;-68
2021/07/27 02:56:20;;;;;;;8.18;4.40;;;;;;;14.86;54.23;95260.00;5004243;28;20038;-68
2021/07/27 02:58:46;;;;;;;5.93;4.13;;;;;;;14.76;54.73;95257.78;5004895;28;20184;-68
2021/07/27 03:01:11;;;;;;;6.53;4.60;;;;;;;15.06;53.64;95259.06;5004422;28;20455;-68
2021/07/27 03:03:37;;;;;;;5.50;4.55;;;;;;;14.74;54.80;95253.66;5003886;28;20042;-68
2021/07/27 03:06:03;;;;;;;6.78;4.35;;;;;;;14.80;54.24;95252.81;5004041;28;20037;-67
2021/07/27 03:08:46;;;;;;;6.70;4.55;;;;;;;15.05;53.61;95250.19;4999530;28;20066;-68
2021/07/27 03:11:13;;;;;;;6.35;4.00;;;;;;;14.92;53.89;95242.25;5004552;28;20069;-67
2021/07/27 03:13:38;;;;;;;5.38;4.10;;;;;;;14.82;54.08;95240.03;4985118;28;20406;-68
2021/07/27 03:16:03;;;;;;;6.95;4.03;;;;;;;14.58;54.82;95248.56;5003855;28;20045;-68
2021/07/27 03:18:29;;;;;;;9.48;4.35;;;;;;;14.70;54.57;95254.06;5004277;28;20037;-68
2021/07/27 03:20:54;;;;;;;8.07;4.30;;;;;;;14.47;55.02;95246.53;5004407;28;20030;-68
2021/07/27 03:23:25;;;;;;;6.22;4.15;;;;;;;14.55;54.95;95251.66;5003575;28;20042;-68
2021/07/27 03:25:50;;;;;;;6.35;4.30;;;;;;;14.55;55.13;95256.19;5004128;28;20105;-68
2021/07/27 03:28:18;;;;;;;8.10;4.68;;;;;;;14.22;56.21;95257.94;5003579;28;20038;-67
2021/07/27 03:30:44;;;;;;;6.32;4.70;;;;;;;13.72;57.96;95248.53;5004473;28;20034;-68
2021/07/27 03:33:09;;;;;;;7.15;4.60;;;;;;;14.56;55.21;95256.00;5002586;28;20350;-68
2021/07/27 03:35:35;;;;;;;8.00;4.70;;;;;;;14.57;54.99;95259.47;5003840;28;20034;-68
2021/07/27 03:38:03;;;;;;;8.00;4.68;;;;;;;14.85;54.16;95263.69;5003575;28;20040;-68
2021/07/27 03:40:29;;;;;;;10.07;4.13;;;;;;;15.27;53.16;95270.50;5004141;28;20582;-69
2021/07/27 03:42:54;;;;;;;5.93;4.50;;;;;;;15.34;52.70;95268.59;5003870;28;20038;-68
2021/07/27 03:45:20;;;;;;;5.80;4.00;;;;;;;15.26;53.05;95276.91;5004981;28;20478;-68
2021/07/27 03:47:45;;;;;;;8.55;4.40;;;;;;;15.16;53.50;95278.16;5003050;28;20113;-68
2021/07/27 03:50:11;;;;;;;5.75;4.40;;;;;;;15.60;52.19;95267.59;5008108;28;20084;-68
2021/07/27 03:52:37;;;;;;;8.60;4.68;;;;;;;15.23;52.90;95276.28;5007413;28;20052;-68
2021/07/27 03:55:02;;;;;;;6.18;4.18;;;;;;;15.63;52.20;95274.38;5006154;28;20646;-68
2021/07/27 03:57:28;;;;;;;6.30;4.13;;;;;;;15.66;52.03;95279.31;5007037;28;20022;-68
2021/07/27 03:59:53;;;;;;;4.78;4.07;;;;;;;15.60;51.93;95274.81;5007145;28;20109;-68
2021/07/27 04:02:19;;;;;;;7.53;4.85;;;;;;;15.26;52.66;95288.44;5007089;28;20080;-67
2021/07/27 04:04:47;;;;;;;6.05;4.43;;;;;;;15.42;52.40;95284.41;5007203;28;20090;-68
2021/07/27 04:07:13;;;;;;;7.97;4.80;;;;;;;14.95;53.79;95284.69;5006737;28;20133;-68
2021/07/27 04:09:39;;;;;;;7.72;4.50;;;;;;;15.33;52.64;95283.84;5006971;28;20126;-68
2021/07/27 04:12:04;;;;;;;6.68;4.90;;;;;;;15.51;52.32;95278.78;5004633;28;20094;-68
2021/07/27 04:14:33;;;;;;;8.13;4.72;;;;;;;15.80;51.48;95284.56;5006707;28;20161;-68
2021/07/27 04:16:59;;;;;;;7.45;4.57;;;;;;;15.30;52.71;95283.47;5007205;28;20112;-69
2021/07/27 04:19:24;;;;;;;5.72;4.40;;;;;;;15.51;52.17;95273.41;5006638;28;20113;-67
2021/07/27 04:21:49;;;;;;;7.13;4.80;;;;;;;15.57;51.89;95269.91;5006611;28;20129;-68
2021/07/27 04:24:17;;;;;;;7.32;4.32;;;;;;;15.85;51.41;95263.25;5006480;28;20472;-68
2021/07/27 04:26:42;;;;;;;6.28;4.45;;;;;;;14.93;53.70;95273.38;5006102;28;20198;-68
2021/07/27 04:29:08;;;;;;;7.97;4.50;;;;;;;15.90;51.08;95282.19;5006684;28;20082;-68
2021/07/27 04:31:33;;;;;;;7.53;4.10;;;;;;;15.73;51.98;95277.41;5006185;28;20448;-68
2021/07/27 04:33:59;;;;;;;8.10;4.63;;;;;;;16.19;50.27;95279.88;5006715;28;20567;-68
2021/07/27 04:36:24;;;;;;;7.57;4.00;;;;;;;16.38;49.79;95279.91;5005243;28;20037;-68
2021/07/27 04:38:49;;;;;;;5.03;4.05;;;;;;;16.15;49.68;95281.38;5006138;28;20034;-68
2021/07/27 04:41:15;;;;;;;5.68;4.32;;;;;;;16.06;50.51;95274.63;5006528;28;20033;-68
2021/07/27 04:43:41;;;;;;;6.43;4.65;;;;;;;14.33;55.04;95283.25;5006177;28;20491;-68
2021/07/27 04:46:07;;;;;;;7.78;4.63;;;;;;;15.54;52.22;95284.50;5006503;28;20107;-68
2021/07/27 04:48:32;;;;;;;4.90;3.70;;;;;;;15.97;50.78;95285.66;5001379;28;20069;-68
2021/07/27 04:51:01;;;;;;;6.15;4.18;;;;;;;16.12;50.35;95285.28;5006586;28;20041;-68
2021/07/27 04:53:29;;;;;;;5.88;4.40;;;;;;;16.12;50.11;95277.25;5006544;28;20092;-68
2021/07/27 04:55:58;;;;;;;6.50;4.00;;;;;;;16.13;50.01;95283.44;5005845;28;20038;-68
2021/07/27 04:58:23;;;;;;;5.85;4.30;;;;;;;15.84;50.45;95280.41;5004642;28;20116;-68
2021/07/27 05:00:49;;;;;;;6.35;4.43;;;;;;;15.14;52.80;95280.25;5006477;28;20406;-68
2021/07/27 05:03:14;;;;;;;5.65;4.68;;;;;;;13.76;56.87;95289.88;5005558;28;20045;-68
2021/07/27 05:05:39;;;;;;;6.60;4.50;;;;;;;14.67;54.68;95289.31;5005757;28;20045;-68
2021/07/27 05:08:05;;;;;;;5.28;3.90;;;;;;;15.32;52.67;95278.69;5005386;28;20435;-68
2021/07/27 05:10:30;;;;;;;5.55;4.40;;;;;;;14.13;56.06;95285.97;5004185;28;20045;-68
2021/07/27 05:12:57;;;;;;;8.90;4.70;;;;;;;14.39;54.64;95284.25;5004011;28;20049;-68
2021/07/27 05:15:22;;;;;;;6.60;4.75;;;;;;;15.22;52.52;95280.00;5005498;28;20044;-68
2021/07/27 05:17:59;;;;;;;5.30;4.05;;;;;;;15.05;52.98;95285.06;5005588;28;20053;-68
2021/07/27 05:20:24;;;;;;;5.82;4.20;;;;;;;15.48;51.74;95288.91;5003187;28;20034;-68
2021/07/27 05:22:50;;;;;;;5.95;4.28;;;;;;;14.69;53.78;95286.44;5005273;28;20034;-68
2021/07/27 05:25:15;;;;;;;6.15;4.35;;;;;;;14.62;53.15;95282.97;5005400;28;20041;-68
2021/07/27 05:27:41;;;;;;;5.10;4.20;;;;;;;14.98;53.73;95292.31;5004068;28;20042;-68
2021/07/27 05:30:07;;;;;;;4.70;3.72;;;;;;;14.87;53.20;95293.81;5005496;28;20038;-67
2021/07/27 05:32:32;;;;;;;5.80;3.90;;;;;;;14.49;53.83;95292.69;5005486;28;20390;-68
2021/07/27 05:34:57;;;;;;;4.78;3.85;;;;;;;15.34;51.94;95282.00;5005048;28;20037;-67
2021/07/27 05:37:23;;;;;;;5.82;3.70;;;;;;;15.85;50.49;95284.72;5005683;28;20080;-68
2021/07/27 05:39:48;;;;;;;4.97;3.78;;;;;;;16.10;49.53;95290.06;5004976;28;20091;-68
2021/07/27 05:42:14;;;;;;;5.95;3.90;;;;;;;15.73;50.27;95296.19;5005214;28;20108;-68
2021/07/27 05:44:39;;;;;;;6.22;3.90;;;;;;;15.57;50.87;95289.47;5004620;28;20080;-68
2021/07/27 05:47:05;;;;;;;5.40;3.50;;;;;;;15.59;50.88;95286.59;5000328;28;20384;-68
2021/07/27 05:49:33;;;;;;;5.95;3.88;;;;;;;15.97;49.87;95284.81;5005375;28;20077;-68
2021/07/27 05:51:58;;;;;;;6.10;4.05;;;;;;;16.13;49.42;95275.38;5005053;28;20217;-68
2021/07/27 05:54:24;;;;;;;7.57;4.10;;;;;;;16.22;48.75;95287.47;5004329;28;20026;-67
2021/07/27 05:56:53;;;;;;;5.13;4.10;;;;;;;15.82;50.02;95279.81;5004772;28;20129;-68
2021/07/27 05:59:19;;;;;;;6.35;4.50;;;;;;;15.73;49.36;95281.94;4998336;28;20068;-68
2021/07/27 06:01:45;;;;;;;6.82;4.35;;;;;;;16.15;49.01;95286.75;5004738;28;20418;-68
2021/07/27 06:04:10;;;;;;;5.25;3.70;;;;;;;16.09;48.96;95271.50;5004618;28;20343;-69
2021/07/27 06:06:36;;;;;;;5.00;3.85;;;;;;;16.02;48.93;95270.75;5003956;28;20064;-68
2021/07/27 06:09:03;;;;;;;6.00;3.70;;;;;;;16.26;48.39;95269.06;5004629;28;20473;-68
2021/07/27 06:11:32;;;;;;;6.75;3.80;;;;;;;16.31;48.30;95268.41;5003835;28;20041;-68
2021/07/27 06:13:58;;;;;;;5.53;4.13;;;;;;;16.36;47.96;95268.56;5007651;28;20041;-69
2021/07/27 06:16:23;;;;;;;6.80;4.28;;;;;;;16.33;48.33;95272.50;4995094;28;20041;-68
2021/07/27 06:18:48;;;;;;;5.75;4.28;;;;;;;15.82;49.18;95274.44;4999989;28;20034;-68
2021/07/27 06:21:14;;;;;;;6.18;4.18;;;;;;;16.27;48.42;95284.13;4999966;28;20037;-68
2021/07/27 06:23:39;;;;;;;7.93;4.40;;;;;;;15.79;49.17;95282.91;5000790;28;20574;-68
2021/07/27 06:26:05;;;;;;;8.27;4.40;;;;;;;16.39;48.47;95271.63;5000060;28;20343;-68
2021/07/27 06:28:30;;;;;;;6.35;3.97;;;;;;;16.95;47.02;95276.13;5006164;28;20125;-69
2021/07/27 06:30:56;;;;;;;5.55;3.85;;;;;;;17.07;46.63;95281.56;4998997;28;20171;-68
2021/07/27 06:33:21;;;;;;;9.15;4.47;;;;;;;17.15;46.26;95281.28;5000865;28;20403;-68
2021/07/27 06:35:47;;;;;;;6.70;4.65;;;;;;;16.11;48.44;95288.19;4999128;28;20057;-68
2021/07/27 06:38:12;;;;;;;6.60;4.82;;;;;;;15.85;48.35;95288.22;5000527;28;20061;-69
2021/07/27 06:40:38;;;;;;;7.35;4.40;;;;;;;16.20;48.07;95297.63;4999135;28;20060;-69
2021/07/27 06:43:03;;;;;;;8.27;4.60;;;;;;;16.59;46.83;95302.00;4999981;28;20038;-67
2021/07/27 06:45:29;;;;;;;7.80;4.47;;;;;;;15.30;50.91;95302.25;4999303;28;20490;-68
2021/07/27 06:47:54;;;;;;;7.07;4.13;;;;;;;17.14;45.55;95294.94;4993919;28;20061;-69
2021/07/27 06:50:19;;;;;;;5.82;4.20;;;;;;;17.65;43.80;95297.31;4998308;28;20108;-68
2021/07/27 06:52:45;;;;;;;6.72;4.22;;;;;;;17.90;43.29;95305.22;5001245;28;20026;-68
2021/07/27 06:55:10;;;;;;;4.85;4.15;;;;;;;18.05;43.84;95298.53;4998484;28;20428;-69
2021/07/27 06:57:36;;;;;;;7.35;5.22;;;;;;;17.68;44.57;95286.09;4999715;28;20040;-69
2021/07/27 07:00:02;;;;;;;5.43;3.90;;;;;;;17.70;44.08;95299.28;4999198;28;20045;-68
2021/07/27 07:02:30;;;;;;;5.78;3.70;;;;;;;17.51;44.97;95304.78;4999076;28;20859;-68
2021/07/27 07:04:58;;;;;;;5.95;3.75;;;;;;;17.21;45.49;95303.75;5005042;28;20434;-68
2021/07/27 07:07:24;;;;;;;5.63;3.47;;;;;;;17.90;44.15;95304.38;4997037;28;20054;-69
2021/07/27 07:09:49;;;;;;;4.60;3.60;;;;;;;18.17;43.32;95301.25;4998752;28;20109;-68
2021/07/27 07:12:14;;;;;;;6.28;3.20;;;;;;;18.56;43.02;95306.94;4996239;28;20471;-69
2021/07/27 07:14:40;;;;;;;4.07;3.40;;;;;;;17.52;45.20;95338.69;4999882;28;20137;-68
2021/07/27 07:17:08;;;;;;;7.40;3.80;;;;;;;17.64;45.20;95341.44;5000252;28;20037;-68
2021/07/27 07:19:34;;;;;;;5.65;3.53;;;;;;;17.78;44.59;95326.69;4999623;28;20042;-68
2021/07/27 07:21:59;;;;;;;5.82;4.15;;;;;;;17.73;44.32;95313.13;5003160;28;20041;-68
2021/07/27 07:24:24;;;;;;;5.18;3.65;;;;;;;18.13;43.83;95297.38;5004445;28;20037;-68
2021/07/27 07:26:50;;;;;;;5.82;3.85;;;;;;;18.64;42.51;95302.28;5003237;28;20041;-69
2021/07/27 07:29:15;;;;;;;7.05;4.22;;;;;;;18.39;42.50;95319.53;5003945;28;20309;-68
2021/07/27 07:31:41;;;;;;;5.60;4.00;;;;;;;19.16;40.80;95319.47;5002797;28;20634;-68
2021/07/27 07:34:06;;;;;;;7.35;4.10;;;;;;;18.58;41.84;95320.22;5003689;28;20483;-68
2021/07/27 07:36:32;;;;;;;5.32;3.63;;;;;;;18.42;42.43;95306.38;5002810;28;20037;-69
2021/07/27 07:38:57;;;;;;;5.07;3.78;;;;;;;18.04;42.80;95313.91;5003357;28;20041;-68
2021/07/27 07:41:24;;;;;;;5.15;4.28;;;;;;;18.53;42.06;95310.13;5002385;28;20049;-69
2021/07/27 07:43:49;;;;;;;5.55;3.50;;;;;;;18.94;41.34;95314.75;5003272;28;20065;-69
2021/07/27 07:46:15;;;;;;;7.10;3.63;;;;;;;19.16;40.84;95317.59;5003088;28;20088;-68
2021/07/27 07:48:40;;;;;;;4.88;3.47;;;;;;;19.32;41.00;95307.97;5003267;28;20399;-69
2021/07/27 07:51:06;;;;;;;5.38;3.45;;;;;;;19.58;40.03;95304.91;5001504;28;20395;-69
2021/07/27 07:53:32;;;;;;;3.83;3.33;;;;;;;20.02;39.71;95306.97;5003191;28;20509;-69
2021/07/27 07:55:57;;;;;;;5.07;3.70;;;;;;;20.16;39.42;95304.75;5002509;28;20041;-68
2021/07/27 07:58:23;;;;;;;5.10;3.53;;;;;;;20.10;39.64;95303.03;5002388;28;20121;-69
2021/07/27 08:00:48;;;;;;;5.32;3.40;;;;;;;19.72;39.25;95313.50;5001104;28;20152;-69
2021/07/27 08:03:13;;;;;;;6.30;4.00;;;;;;;19.33;40.83;95317.69;5002154;28;20088;-68
2021/07/27 08:05:39;;;;;;;4.75;3.65;;;;;;;19.75;39.83;95313.00;5003000;28;20070;-69
2021/07/27 08:08:05;;;;;;;5.32;4.05;;;;;;;20.21;39.47;95318.34;5002639;28;20383;-69
2021/07/27 08:10:30;;;;;;;5.32;4.03;;;;;;;20.45;38.72;95310.03;5002185;28;20050;-69
2021/07/27 08:12:55;;;;;;;7.32;3.50;;;;;;;20.96;38.43;95317.19;4999100;28;20034;-69
2021/07/27 08:15:26;;;;;;;6.35;4.20;;;;;;;20.92;37.14;95317.94;5001786;28;20038;-69
2021/07/27 08:17:52;;;;;;;5.60;3.60;;;;;;;20.55;38.23;95336.41;5002785;28;20053;-69
2021/07/27 08:20:17;;;;;;;7.07;4.18;;;;;;;19.93;38.90;95328.16;5002226;28;20340;-69
2021/07/27 08:22:43;;;;;;;5.25;3.60;;;;;;;20.21;38.56;95329.16;5003629;28;20046;-69
2021/07/27 08:25:16;;;;;;;5.40;3.80;;;;;;;20.75;38.04;95326.94;5002168;28;20064;-69
2021/07/27 08:27:43;;;;;;;7.90;4.10;;;;;;;20.82;37.34;95333.00;5002096;28;20395;-69
2021/07/27 08:30:09;;;;;;;5.57;4.10;;;;;;;20.28;38.42;95325.44;5002088;28;20573;-69
2021/07/27 08:32:34;;;;;;;5.82;3.95;;;;;;;20.68;38.29;95329.00;5001776;28;20034;-70
2021/07/27 08:35:00;;;;;;;8.82;4.25;;;;;;;20.70;36.89;95332.31;5002323;28;20044;-69
2021/07/27 08:37:27;;;;;;;8.30;5.28;;;;;;;18.89;39.38;95328.13;5002289;28;20036;-69
2021/07/27 08:39:57;;;;;;;6.40;4.35;;;;;;;17.24;45.12;95332.84;5001561;28;20056;-69
2021/07/27 08:42:23;;;;;;;5.22;4.10;;;;;;;18.89;41.07;95333.50;5001584;28;20084;-69
2021/07/27 08:44:48;;;;;;;4.70;3.40;;;;;;;19.85;39.65;95328.53;5000922;28;20014;-69
2021/07/27 08:47:14;;;;;;;4.80;3.50;;;;;;;20.32;39.05;95322.00;4997503;28;20038;-69
2021/07/27 08:49:39;;;;;;;5.47;3.90;;;;;;;20.26;38.56;95324.91;4999949;28;20034;-69
2021/07/27 08:52:05;;;;;;;7.32;3.67;;;;;;;21.35;36.70;95332.53;4983152;28;20071;-69
2021/07/27 08:54:30;;;;;;;7.20;3.95;;;;;;;21.74;35.71;95337.00;5001899;28;20377;-69
2021/07/27 08:56:56;;;;;;;5.05;3.95;;;;;;;22.06;34.77;95340.78;5001217;28;20057;-69
2021/07/27 08:59:22;;;;;;;6.47;4.55;;;;;;;22.13;34.92;95332.47;5000846;28;20041;-69
2021/07/27 09:01:47;;;;;;;5.90;4.00;;;;;;;22.00;35.20;95337.22;4999813;28;20037;-69
2021/07/27 09:04:14;;;;;;;5.07;3.92;;;;;;;22.10;35.77;95335.69;5001393;28;20076;-69
2021/07/27 09:06:39;;;;;;;5.45;3.95;;;;;;;22.61;35.77;95337.13;5000941;28;20132;-69
2021/07/27 09:09:11;;;;;;;5.68;3.70;;;;;;;22.97;33.71;95345.44;5001692;28;20072;-69
2021/07/27 09:11:44;;;;;;;7.68;3.72;;;;;;;22.79;34.64;95349.44;4998559;28;20463;-69
2021/07/27 09:14:12;;;;;;;7.55;4.00;;;;;;;22.80;35.47;95351.06;5000900;28;20483;-69
2021/07/27 09:16:49;;;;;;;7.18;4.30;;;;;;;22.79;33.75;95349.44;5001247;28;20395;-68
2021/07/27 09:19:15;;;;;;;6.38;4.32;;;;;;;23.01;34.29;95357.41;4995116;28;20065;-68
2021/07/27 09:21:42;;;;;;;6.97;5.22;;;;;;;23.03;34.23;95360.69;5000863;28;20450;-68
2021/07/27 09:24:11;;;;;;;6.43;4.53;;;;;;;23.22;34.16;95353.97;4994502;28;20053;-69
2021/07/27 09:26:37;;;;;;;5.93;4.60;;;;;;;22.49;35.60;95348.97;4997890;28;20069;-69
2021/07/27 09:29:05;;;;;;;5.25;4.30;;;;;;;22.53;34.76;95349.28;4994682;28;20072;-69
2021/07/27 09:31:32;;;;;;;7.00;4.13;;;;;;;22.76;35.07;95347.25;5001001;28;20081;-69
2021/07/27 09:33:57;;;;;;;5.63;4.53;;;;;;;22.62;35.10;95336.03;5001140;28;20547;-69
2021/07/27 09:36:24;;;;;;;5.38;4.25;;;;;;;22.68;35.59;95339.59;5000567;28;20056;-69
2021/07/27 09:39:02;;;;;;;;;;;;;;;22.50;35.17;95342.44;5007712;28;20033;-69
2021/07/27 09:41:30;;;;;;;8.75;4.28;;;;;;;22.49;35.69;95335.41;4994997;28;19967;-67
2021/07/27 09:43:57;;;;;;;6.53;4.10;;;;;;;22.21;35.57;95336.56;5000041;28;20045;-69
2021/07/27 09:46:23;;;;;;;7.15;4.82;;;;;;;21.65;36.50;95343.94;4999873;28;20121;-69
2021/07/27 09:48:48;;;;;;;6.55;4.80;;;;;;;22.27;34.89;95336.34;4983641;28;20033;-69
2021/07/27 09:51:14;;;;;;;8.02;4.68;;;;;;;22.18;35.12;95332.50;5001905;28;20038;-69
2021/07/27 09:53:40;;;;;;;6.65;4.53;;;;;;;22.87;34.55;95324.50;5001449;28;20382;-69
2021/07/27 09:56:07;;;;;;;8.40;4.53;;;;;;;22.41;34.87;95323.13;5001645;28;20053;-69
2021/07/27 09:58:32;;;;;;;5.20;4.00;;;;;;;22.94;34.70;95328.88;5001304;28;20044;-69
2021/07/27 10:01:16;;;;;;;6.07;4.80;;;;;;;21.90;36.01;95337.13;5001233;28;20387;-69
2021/07/27 10:03:51;;;;;;;5.63;4.03;;;;;;;22.83;34.83;95326.13;4999272;28;20068;-69
2021/07/27 10:06:40;;;;;;;7.43;4.60;;;;;;;22.35;35.50;95334.22;4999470;28;20034;-68
2021/07/27 10:09:05;;;;;;;5.57;4.13;;;;;;;23.50;33.17;95341.03;4990797;28;20057;-68
2021/07/27 10:11:35;;;;;;;4.90;4.00;;;;;;;23.25;34.31;95334.44;4999223;28;20298;-69
2021/07/27 10:14:15;;;;;;;8.30;4.45;;;;;;;23.74;33.12;95330.50;5005938;28;20034;-79
2021/07/27 10:16:41;;;;;;;6.75;4.40;;;;;;;23.93;32.47;95344.34;5003696;28;20100;-79
2021/07/27 10:19:20;;;;;;;5.47;4.10;;;;;;;23.76;32.65;95343.81;5001919;28;20077;-72
2021/07/27 10:21:46;;;;;;;5.35;4.00;;;;;;;24.13;33.03;95342.72;5001012;28;20030;-71
2021/07/27 10:24:23;;;;;;;;;;;;;;;24.66;31.26;95340.78;5001202;28;20042;-71
2021/07/27 10:26:49;;;;;;;6.68;5.35;;;;;;;24.44;32.75;95353.59;4995776;28;19922;-71
2021/07/27 10:29:14;;;;;;;5.93;4.00;;;;;;;24.94;31.55;95352.16;5001562;28;20530;-71
2021/07/27 10:31:42;;;;;;;7.57;4.17;;;;;;;25.78;29.47;95358.03;5000859;28;20062;-71
2021/07/27 10:34:08;;;;;;;6.65;4.32;;;;;;;24.14;33.34;95355.25;5000039;28;20057;-71
2021/07/27 10:36:40;;;;;;;6.07;4.00;;;;;;;24.27;32.59;95358.50;4999154;28;20053;-72
2021/07/27 10:39:09;;;;;;;5.97;3.88;;;;;;;23.36;34.02;95354.31;5001385;28;20491;-70
2021/07/27 10:41:48;;;;;;;6.95;4.50;;;;;;;23.54;31.85;95348.38;4999801;28;20045;-70
2021/07/27 10:44:15;;;;;;;9.05;4.28;;;;;;;23.35;32.80;95339.91;5001340;28;20529;-71
2021/07/27 10:46:44;;;;;;;6.07;4.63;;;;;;;24.12;31.97;95354.69;4997636;28;20092;-71
2021/07/27 10:49:22;;;;;;;6.22;4.35;;;;;;;21.88;35.25;95350.09;4998685;28;20391;-71
2021/07/27 10:51:48;;;;;;;7.68;4.45;;;;;;;22.87;33.40;95346.22;5001586;28;20061;-71
2021/07/27 10:54:17;;;;;;;5.27;4.40;;;;;;;22.79;34.24;95344.00;5001288;28;20392;-71
2021/07/27 10:56:48;;;;;;;8.05;4.53;;;;;;;22.53;33.00;95349.28;5004395;28;20053;-70
2021/07/27 10:59:19;;;;;;;6.95;4.55;;;;;;;21.57;35.57;95357.94;5003331;28;20543;-71
2021/07/27 11:01:45;;;;;;;6.90;4.32;;;;;;;22.01;34.62;95347.00;5004863;28;20029;-72
2021/07/27 11:04:10;;;;;;;6.20;4.35;;;;;;;22.35;33.89;95343.19;5003516;28;20518;-71
2021/07/27 11:06:37;;;;;;;6.15;4.60;;;;;;;22.73;33.77;95345.03;5002673;28;20046;-71
2021/07/27 11:09:02;;;;;;;6.40;4.13;;;;;;;21.94;35.40;95345.56;4986727;28;20462;-72
2021/07/27 11:11:28;;;;;;;5.85;4.43;;;;;;;21.97;35.78;95343.19;5003314;28;20316;-72
2021/07/27 11:13:53;;;;;;;9.27;4.72;;;;;;;22.70;33.97;95334.75;5005071;28;20034;-71
2021/07/27 11:16:19;;;;;;;6.38;4.55;;;;;;;22.32;35.04;95341.00;5003645;28;20037;-71
2021/07/27 11:18:45;;;;;;;6.78;4.60;;;;;;;22.61;33.70;95332.50;5004147;28;20117;-71
2021/07/27 11:21:11;;;;;;;6.80;5.00;;;;;;;22.62;33.04;95336.03;5003176;28;20506;-71
2021/07/27 11:23:36;;;;;;;6.18;4.45;;;;;;;23.23;32.78;95320.31;5004250;28;20054;-72
2021/07/27 11:26:02;;;;;;;10.07;4.47;;;;;;;22.92;33.29;95321.81;5002417;28;20065;-72
2021/07/27 11:28:35;;;;;;;5.10;4.38;;;;;;;22.98;32.23;95329.97;5004238;28;20073;-71
2021/07/27 11:31:01;;;;;;;8.20;4.70;;;;;;;21.82;34.92;95327.56;5003271;28;20551;-71
2021/07/27 11:33:26;;;;;;;5.22;4.35;;;;;;;22.60;33.87;95311.91;5002677;28;20069;-71
2021/07/27 11:35:53;;;;;;;6.07;4.80;;;;;;;24.02;31.50;95313.91;5001274;28;20446;-71
2021/07/27 11:38:25;;;;;;;7.30;4.00;;;;;;;24.82;30.28;95309.69;5003839;28;20356;-71
2021/07/27 11:41:05;;;;;;;7.78;4.80;;;;;;;22.31;32.52;95312.25;5003608;28;20421;-71
2021/07/27 11:43:34;;;;;;;5.43;3.83;;;;;;;23.87;30.29;95301.97;5003163;28;20038;-70
2021/07/27 11:46:06;;;;;;;6.20;4.03;;;;;;;24.12;30.14;95303.03;5002191;28;20526;-70
2021/07/27 11:48:35;;;;;;;5.65;3.95;;;;;;;24.52;30.48;95297.84;5000522;28;20046;-70
2021/07/27 11:51:01;;;;;;;7.18;5.78;;;;;;;24.60;30.55;95295.66;5002301;28;20626;-70